Airfield :
LOGIN :

Register | Disclaimer

   EN    FR    IT 

 










Legend :    VFR   Marginal VFR   IFR   Intensive IFR   Very Intensive IFR
Visi :
Ceiling :
>= 8 km
>= 3000ft
5 to 8 km
1000 to 3000 ft
1500m to 5 km
500 to 1000 ft
800 to 1500m
200 to 500 ft
< 800m
< 200 ft
Symbols :   Thunderstorms  Fog  Heavy snow  Heavy precipitations  Wind > 20 kt
SIGMETs :     Misc.  Thunderstorms  Icing  Turbulence  Mountain Waves  Volcanic Ashes






- Airport Elevation : 49 ft
- IATA code : GLZ


EHGR - Gilze-Rijen Airbase

CURRENT METAR :
  • 161925Z AUTO 24012KT 200V270 9999 -RA FEW015CB BKN051/// OVC057/// 09/07 Q1001 RERA REDZ BLU

EXPIRED METARs :
  • 161904Z AUTO 24013KT 210V280 9999 -RA SCT045 BKN051 OVC057 08/07 Q1001 BLU
  • 161855Z AUTO 25012KT 210V280 9999 -SHRA FEW010 SCT015CB BKN060 08/07 Q1000 WHT
  • 161841Z AUTO 25011G22KT 220V280 8000 -RA FEW010 FEW015CB SCT048 BKN053 08/07 Q1000 BLU
  • 161825Z AUTO 26014KT 230V300 7000 -RA FEW012 SCT048 OVC052 08/07 Q1000 WHT
  • 161811Z AUTO 27016G26KT 240V300 9999 -SHRA FEW010 BKN041 OVC047 08/07 Q1000 BLU
  • 161755Z AUTO 28022KT 260V320 7000 SHRA FEW010 SCT013 BKN015 08/07 Q0999 GRN
  • 161747Z AUTO 28021G33KT 250V330 7000 -RA FEW010 BKN015CB BKN021 09/07 Q0999 WHT
  • 161736Z AUTO 29024G41KT 250V320 8000 SHRA FEW010 FEW015CB SCT021 BKN032 09/07 Q0999 WHT
  • 161729Z AUTO 28027G37KT 260V330 8000 SHRA SCT015CB SCT028 BKN033 09/08 Q0998 WHT
  • 161714Z AUTO 27023G38KT 250V310 2200 +SHRA FEW002 SCT006 BKN013 BKN015CB 09/08 Q0997 YLO
  • 161656Z AUTO 21027G44KT 160V260 9999 FEW023CB SCT032 BKN037 17/11 Q0995 BLU

Expired Forecast.



MET'MAP, your aeronautical weather chart ! - Copyright ORBIFLY December 2007 - Disclaimer

ORBIFLY MET'MAP TEAM :

Programming & Development : Alexandra Zaïnal
Concept & original design : Baudouin d'Aumeries
Assistance for programming : Marc-Olivier Méhu
Technical & hardware support : Manuel Goepfert

Contact : metmap@orbifly.com




SOURCES & CREDITS :

   NOAA